»·PEaware :: N172SP KSNA-KCRQ

N172SP :: KSNA-KCRQ

FLIGHT INFORMATION

Flight Status: Arrived
Operator: Privately registered:
United States
More flights under this callsign
Pilot: Johnathan E. (26698)
Aircraft: CESSNA 172 SKYHAWK
(C172)
More flights by this aircraft type
Origin: KSNA John Wayne-Orange Co
United States
Destination: KCRQ McClellan-Palomar
United States
More flights between these airports :: More routes between these airports
Route: KSNA V23 OCN KCRQ
File this flight plan on PilotEdge
Remarks: I2 rating
Altitude:
(Current/Filed)
5,000ft
Speed:
(Current/Filed)
110kts
Departed: 02-Dec-19 06:54 PM
Arrived: 02-Dec-19 07:34 PM
Distance/Time
Traveled:
44nm/0:39
Distance/Time
To Go:
Arrived

Flight Plot

Page will automatically refresh every two minutes.


Map Options




Map Legend


Flown Route
Filed Route
Departure Airport
Arrival Airport
Navaid (VOR, NDB)
Fix

Horizontal Profiles

Position Reports

Time Latitude Longitude Heading Altitude Ground
Speed
02-Dec-19 18:35 33.680083 -117.861836 290 60ft 0kts
02-Dec-19 18:36 33.680083 -117.861836 290 60ft 0kts
02-Dec-19 18:36 33.680083 -117.861836 290 60ft 0kts
02-Dec-19 18:38 33.680083 -117.861836 290 60ft 0kts
02-Dec-19 18:39 33.680083 -117.861836 290 60ft 0kts
02-Dec-19 18:39 33.680083 -117.861836 290 60ft 0kts
02-Dec-19 18:40 33.680083 -117.861836 290 60ft 0kts
02-Dec-19 18:42 33.680083 -117.861836 290 60ft 0kts
02-Dec-19 18:43 33.680083 -117.861836 290 60ft 0kts
02-Dec-19 18:43 33.680083 -117.861836 290 60ft 0kts
02-Dec-19 18:44 33.680083 -117.861836 290 60ft 0kts
02-Dec-19 18:45 33.680083 -117.861836 290 60ft 0kts
02-Dec-19 18:46 33.680083 -117.861836 290 60ft 0kts
02-Dec-19 18:47 33.680083 -117.861836 290 60ft 0kts
02-Dec-19 18:48 33.680083 -117.861836 290 60ft 0kts
02-Dec-19 18:49 33.679744 -117.863117 289 60ft 0kts
02-Dec-19 18:51 33.679867 -117.863422 299 60ft 0kts
02-Dec-19 18:51 33.679848 -117.864348 212 60ft 0kts
02-Dec-19 18:52 33.679604 -117.864528 215 60ft 24kts
02-Dec-19 18:53 33.662898 -117.874087 183 638ft 92kts
02-Dec-19 18:54 33.637700 -117.873574 180 1697ft 90kts
02-Dec-19 18:55 33.610898 -117.871251 143 2707ft 93kts
02-Dec-19 18:56 33.600476 -117.843306 103 3598ft 93kts
02-Dec-19 18:57 33.589976 -117.814085 117 4429ft 94kts
02-Dec-19 18:58 33.573564 -117.788711 129 4914ft 117kts
02-Dec-19 18:59 33.547251 -117.766743 147 4965ft 130kts
02-Dec-19 19:00 33.522381 -117.740900 128 4980ft 129kts
02-Dec-19 19:01 33.498602 -117.711474 125 5046ft 128kts
02-Dec-19 19:02 33.482867 -117.681249 143 5083ft 125kts
02-Dec-19 19:03 33.455265 -117.657938 138 5062ft 129kts
02-Dec-19 19:04 33.430631 -117.629844 136 5118ft 125kts
02-Dec-19 19:05 33.405718 -117.603412 142 5054ft 131kts
02-Dec-19 19:06 33.379133 -117.578753 138 5065ft 130kts
02-Dec-19 19:07 33.352557 -117.557679 156 5050ft 131kts
02-Dec-19 19:08 33.328939 -117.534098 138 5053ft 131kts
02-Dec-19 19:09 33.300765 -117.509430 144 5075ft 130kts
02-Dec-19 19:10 33.271550 -117.489212 153 5077ft 130kts
02-Dec-19 19:11 33.240287 -117.469138 134 5006ft 136kts
02-Dec-19 19:12 33.222421 -117.436488 91 4929ft 139kts
02-Dec-19 19:13 33.237675 -117.404053 102 4976ft 128kts
02-Dec-19 19:14 33.210715 -117.393528 237 4646ft 142kts
02-Dec-19 19:15 33.225252 -117.394163 69 4797ft 109kts
02-Dec-19 19:16 33.230300 -117.360313 80 4919ft 131kts
02-Dec-19 19:17 33.229681 -117.325230 85 5008ft 128kts
02-Dec-19 19:18 33.227440 -117.287149 101 5021ft 130kts
02-Dec-19 19:19 33.221406 -117.248787 101 5045ft 130kts
02-Dec-19 19:20 33.214769 -117.210185 107 5053ft 131kts
02-Dec-19 19:21 33.211061 -117.171519 101 5051ft 131kts
02-Dec-19 19:22 33.206452 -117.133540 97 5060ft 132kts
02-Dec-19 19:23 33.202715 -117.095829 100 5037ft 132kts
02-Dec-19 19:24 33.182422 -117.076512 192 5025ft 129kts
02-Dec-19 19:25 33.159008 -117.095719 257 4667ft 127kts
02-Dec-19 19:26 33.151599 -117.123824 252 4558ft 94kts
02-Dec-19 19:27 33.146870 -117.152134 260 3677ft 105kts
02-Dec-19 19:28 33.145105 -117.181694 260 2983ft 91kts
02-Dec-19 19:29 33.139999 -117.209902 257 2087ft 84kts
02-Dec-19 19:30 33.136258 -117.231469 262 1110ft 65kts
02-Dec-19 19:31 33.132858 -117.250937 257 688ft 64kts
02-Dec-19 19:32 33.130050 -117.269629 260 397ft 52kts
02-Dec-19 19:33 33.127645 -117.279849 226 335ft 22kts
02-Dec-19 19:34 33.127531 -117.279994 227 335ft 0kts
02-Dec-19 19:35 33.127184 -117.279684 140 335ft 10kts

Navigation Log

Ident Type
Flight plan parsing failed, navigation log unavailable